Time;durP1;ratioP1;P1;durP2;ratioP2;P2;SDS_P1;SDS_P2;PMS_P1;PMS_P2;Temp;Humidity;BMP_temperature;BMP_pressure;BME280_temperature;BME280_humidity;BME280_pressure;Samples;Min_cycle;Max_cycle;Signal;HPM_P1;HPM_P2
2022/04/26 03:36:41;;;;;;;8.15;3.75;;;10.80;66.90;;;;;;5116145;28;20043;-69
2022/04/26 03:39:07;;;;;;;6.85;3.85;;;10.80;67.20;;;;;;5115919;28;20448;-69
2022/04/26 03:41:34;;;;;;;5.57;3.42;;;10.80;67.40;;;;;;5115784;28;20059;-69
2022/04/26 03:44:00;;;;;;;9.48;3.90;;;10.80;67.70;;;;;;5115836;28;20025;-69
2022/04/26 03:46:26;;;;;;;8.25;4.28;;;10.80;67.80;;;;;;5115777;28;20433;-70
2022/04/26 03:48:52;;;;;;;5.75;3.50;;;10.80;67.90;;;;;;5115758;28;20020;-69
2022/04/26 03:51:17;;;;;;;10.60;4.20;;;10.80;68.10;;;;;;5115699;28;20024;-69
2022/04/26 03:53:43;;;;;;;10.95;3.78;;;10.80;68.20;;;;;;5115617;28;20052;-69
2022/04/26 03:56:09;;;;;;;10.23;4.05;;;10.80;68.40;;;;;;5115614;28;20085;-69
2022/04/26 03:58:34;;;;;;;9.13;4.18;;;10.80;69.40;;;;;;5097785;28;20028;-69
2022/04/26 04:01:00;;;;;;;6.78;4.07;;;10.80;68.80;;;;;;5115540;28;20102;-69
2022/04/26 04:03:26;;;;;;;7.32;4.07;;;10.80;68.90;;;;;;5115379;28;20107;-69
2022/04/26 04:05:52;;;;;;;8.45;4.30;;;10.80;69.20;;;;;;5115502;28;20020;-69
2022/04/26 04:08:18;;;;;;;9.93;4.18;;;10.70;69.20;;;;;;5115372;28;20023;-70
2022/04/26 04:10:44;;;;;;;7.43;3.92;;;10.80;69.20;;;;;;5115289;28;20028;-69
2022/04/26 04:13:10;;;;;;;6.90;4.20;;;10.80;69.20;;;;;;5115269;28;20062;-69
2022/04/26 04:15:36;;;;;;;8.25;4.25;;;10.80;69.50;;;;;;5097276;28;20104;-69
2022/04/26 04:18:02;;;;;;;8.00;4.60;;;10.70;69.60;;;;;;5097231;28;20043;-69
2022/04/26 04:20:29;;;;;;;6.78;4.03;;;10.80;69.70;;;;;;5115263;28;20056;-69
2022/04/26 04:22:56;;;;;;;10.23;4.40;;;10.80;69.80;;;;;;5114808;28;20079;-69
2022/04/26 04:25:21;;;;;;;10.40;4.38;;;10.80;69.80;;;;;;5113885;28;20051;-70
2022/04/26 04:27:47;;;;;;;9.63;4.10;;;10.80;70.60;;;;;;5114861;28;20032;-69
2022/04/26 04:30:14;;;;;;;12.88;4.10;;;10.80;69.70;;;;;;5114884;28;20036;-70
2022/04/26 04:32:39;;;;;;;9.85;3.90;;;10.80;69.80;;;;;;5114899;28;20024;-69
2022/04/26 04:35:06;;;;;;;8.20;4.10;;;10.80;69.80;;;;;;5114814;28;20510;-69
2022/04/26 04:37:32;;;;;;;7.68;3.90;;;10.80;69.80;;;;;;5096923;28;20059;-69
2022/04/26 04:39:57;;;;;;;5.93;3.97;;;10.80;70.00;;;;;;5114778;28;20021;-69
2022/04/26 04:42:23;;;;;;;7.45;4.15;;;10.80;70.10;;;;;;5114598;28;20518;-69
2022/04/26 04:44:50;;;;;;;8.45;3.78;;;10.90;70.10;;;;;;5096789;28;20032;-69
2022/04/26 04:47:15;;;;;;;6.65;3.53;;;10.90;70.10;;;;;;5114635;28;20101;-68
2022/04/26 04:49:41;;;;;;;8.88;4.05;;;10.90;71.10;;;;;;5079742;28;20032;-69
2022/04/26 04:52:06;;;;;;;6.07;3.72;;;10.90;70.20;;;;;;5114453;28;20032;-70
2022/04/26 04:54:32;;;;;;;9.13;4.30;;;10.90;70.20;;;;;;5114448;28;20028;-69
2022/04/26 04:56:58;;;;;;;9.60;4.47;;;10.90;70.40;;;;;;5114424;28;20039;-70
2022/04/26 04:59:24;;;;;;;6.72;4.00;;;10.90;70.60;;;;;;5114348;28;20047;-70
2022/04/26 05:01:49;;;;;;;7.05;4.07;;;10.90;70.60;;;;;;5114223;28;20032;-70
2022/04/26 05:04:15;;;;;;;8.80;4.50;;;10.80;70.70;;;;;;5114383;28;20089;-71
2022/04/26 05:06:41;;;;;;;8.18;4.32;;;10.90;70.90;;;;;;5114250;28;20054;-70
2022/04/26 05:09:06;;;;;;;12.45;4.45;;;10.90;71.00;;;;;;5114150;28;20025;-70
2022/04/26 05:11:32;;;;;;;8.23;4.20;;;10.90;70.90;;;;;;5096243;28;20039;-70
2022/04/26 05:13:57;;;;;;;6.60;4.22;;;10.90;71.10;;;;;;5114067;28;20024;-70
2022/04/26 05:16:23;;;;;;;7.68;4.28;;;10.90;71.20;;;;;;5114143;28;20115;-71
2022/04/26 05:18:49;;;;;;;7.95;4.30;;;10.90;71.20;;;;;;5113959;28;20035;-70
2022/04/26 05:21:15;;;;;;;7.43;3.97;;;10.90;71.30;;;;;;5096116;28;20058;-71
2022/04/26 05:26:36;;;;;;;6.38;4.38;;;10.90;71.40;;;;;;5021775;28;20106;-70
2022/04/26 05:29:02;;;;;;;10.18;4.80;;;10.90;71.60;;;;;;5092575;28;20033;-70
2022/04/26 05:31:27;;;;;;;7.93;4.38;;;10.90;71.60;;;;;;5093541;28;20032;-70
2022/04/26 05:33:53;;;;;;;8.95;4.05;;;10.90;71.70;;;;;;5093394;28;20088;-70
2022/04/26 05:36:19;;;;;;;8.55;4.53;;;10.90;71.70;;;;;;5093249;28;20025;-70
2022/04/26 05:38:44;;;;;;;9.52;4.85;;;10.90;72.00;;;;;;5093348;28;20021;-71
2022/04/26 05:41:10;;;;;;;8.80;5.05;;;10.90;72.00;;;;;;5093251;28;20028;-70
2022/04/26 05:43:35;;;;;;;9.73;4.95;;;10.90;72.10;;;;;;5093326;28;20024;-71
2022/04/26 05:46:01;;;;;;;9.27;4.93;;;10.90;72.10;;;;;;5093313;28;20024;-71
2022/04/26 05:48:27;;;;;;;9.93;4.60;;;10.90;72.20;;;;;;5093239;28;20032;-71
2022/04/26 05:50:54;;;;;;;12.27;5.43;;;10.90;73.10;;;;;;5093274;28;20479;-70
2022/04/26 05:53:19;;;;;;;9.27;5.15;;;10.90;72.30;;;;;;5093289;28;20028;-71
2022/04/26 05:55:45;;;;;;;9.60;5.18;;;10.90;72.40;;;;;;5093216;28;20028;-71
2022/04/26 05:58:10;;;;;;;8.90;5.18;;;10.90;72.30;;;;;;5093155;28;20036;-70
2022/04/26 06:00:36;;;;;;;12.70;5.63;;;10.90;72.20;;;;;;5093160;28;20099;-70
2022/04/26 06:03:02;;;;;;;12.43;5.82;;;10.90;72.30;;;;;;5093072;28;20052;-71
2022/04/26 06:05:27;;;;;;;11.43;5.25;;;11.00;72.50;;;;;;5093131;28;20016;-70
2022/04/26 06:07:53;;;;;;;12.25;5.60;;;11.00;72.80;;;;;;5093105;28;20508;-71
2022/04/26 06:10:19;;;;;;;9.40;5.65;;;11.00;72.50;;;;;;5093217;28;20080;-69
2022/04/26 06:12:45;;;;;;;8.63;5.38;;;11.00;72.60;;;;;;5093038;28;20045;-69
2022/04/26 06:15:12;;;;;;;10.90;5.25;;;11.00;72.50;;;;;;5093068;28;20130;-69
2022/04/26 06:17:38;;;;;;;9.38;5.90;;;11.10;72.80;;;;;;5092069;28;20028;-69
2022/04/26 06:20:04;;;;;;;11.35;5.35;;;11.10;72.60;;;;;;5092955;28;20036;-69
2022/04/26 06:22:30;;;;;;;12.68;6.32;;;11.10;72.70;;;;;;5092882;28;20031;-69
2022/04/26 06:24:55;;;;;;;12.85;6.13;;;11.10;72.50;;;;;;5098827;28;20067;-69
2022/04/26 06:27:22;;;;;;;10.32;6.35;;;11.10;72.40;;;;;;5095292;28;20035;-69
2022/04/26 06:29:47;;;;;;;11.02;5.68;;;11.10;72.20;;;;;;5113061;28;20021;-69
2022/04/26 06:32:13;;;;;;;9.43;6.55;;;11.10;72.30;;;;;;5113034;28;20039;-69
2022/04/26 06:34:38;;;;;;;12.15;6.75;;;11.10;72.30;;;;;;5095136;28;20032;-69
2022/04/26 06:37:04;;;;;;;13.95;6.47;;;11.20;72.20;;;;;;5113119;28;20028;-69
2022/04/26 06:39:29;;;;;;;13.18;6.63;;;11.20;72.30;;;;;;5113045;28;20028;-69
2022/04/26 06:41:55;;;;;;;13.90;7.10;;;11.20;72.10;;;;;;5112973;28;20032;-69
2022/04/26 06:44:21;;;;;;;16.23;7.55;;;11.20;71.90;;;;;;5113076;28;20083;-69
2022/04/26 06:46:46;;;;;;;11.13;7.25;;;11.10;71.70;;;;;;5095501;28;20038;-69
2022/04/26 06:49:12;;;;;;;12.48;7.32;;;11.20;71.70;;;;;;5116878;28;20028;-69
2022/04/26 06:51:40;;;;;;;13.00;7.60;;;11.20;72.40;;;;;;5116855;28;20032;-69
2022/04/26 06:54:07;;;;;;;14.80;7.55;;;11.20;71.70;;;;;;5116792;28;20013;-69
2022/04/26 06:56:33;;;;;;;13.77;7.10;;;11.20;71.70;;;;;;5116749;28;20051;-69
2022/04/26 06:58:59;;;;;;;11.32;7.32;;;11.20;71.60;;;;;;5116771;28;20025;-69
2022/04/26 07:01:25;;;;;;;13.40;7.30;;;11.20;71.80;;;;;;5116596;28;20059;-69
2022/04/26 07:03:50;;;;;;;15.77;7.10;;;11.20;71.70;;;;;;5116757;28;20024;-69
2022/04/26 07:06:16;;;;;;;11.05;7.10;;;11.30;71.90;;;;;;5116627;28;20127;-69
2022/04/26 07:08:42;;;;;;;12.77;7.38;;;11.30;71.80;;;;;;5098677;28;20021;-69
2022/04/26 07:11:08;;;;;;;14.90;7.93;;;11.40;71.90;;;;;;5116507;28;20012;-69
2022/04/26 07:13:34;;;;;;;11.88;7.28;;;11.40;71.60;;;;;;5081759;28;20032;-69
2022/04/26 07:16:00;;;;;;;11.68;7.90;;;11.50;71.60;;;;;;5116378;28;20050;-69
2022/04/26 07:18:26;;;;;;;15.23;7.78;;;11.50;71.80;;;;;;5098410;28;20047;-69
2022/04/26 07:20:52;;;;;;;12.35;7.53;;;11.50;71.50;;;;;;5116330;28;20482;-70
2022/04/26 07:23:17;;;;;;;12.35;7.18;;;11.50;71.00;;;;;;5115933;28;20039;-69
2022/04/26 07:25:43;;;;;;;15.07;6.57;;;11.60;71.10;;;;;;5094810;28;20049;-69
2022/04/26 07:28:09;;;;;;;14.75;8.23;;;11.60;71.70;;;;;;5095833;28;20120;-70
2022/04/26 07:30:35;;;;;;;12.57;7.10;;;11.70;71.50;;;;;;5094916;28;20029;-70
2022/04/26 07:35:50;;;;;;;12.52;7.53;;;11.80;71.40;;;;;;5095933;28;20093;-69
2022/04/26 07:38:16;;;;;;;17.75;7.80;;;11.90;71.50;;;;;;5095686;28;20031;-69
2022/04/26 07:40:42;;;;;;;14.27;7.28;;;11.90;70.90;;;;;;5095639;28;20025;-69
2022/04/26 07:43:08;;;;;;;12.38;7.00;;;12.00;70.30;;;;;;5095631;28;20025;-70
2022/04/26 07:45:37;;;;;;;12.80;7.18;;;12.10;70.50;;;;;;5095625;28;20095;-70
2022/04/26 07:48:05;;;;;;;11.85;6.57;;;12.10;70.90;;;;;;5095505;28;20030;-69
2022/04/26 07:50:30;;;;;;;10.65;6.43;;;12.20;70.20;;;;;;5094423;28;20028;-69
2022/04/26 07:52:56;;;;;;;15.90;7.35;;;12.20;69.40;;;;;;5094329;28;20104;-70
2022/04/26 07:55:22;;;;;;;12.68;7.07;;;12.20;69.60;;;;;;5095344;28;20024;-70
2022/04/26 07:57:48;;;;;;;11.68;7.03;;;12.20;68.90;;;;;;5095264;28;20064;-69
2022/04/26 08:00:14;;;;;;;12.68;6.88;;;12.20;68.90;;;;;;5095385;28;20032;-70
2022/04/26 08:02:40;;;;;;;10.88;6.45;;;12.20;68.90;;;;;;5095247;28;20020;-70
2022/04/26 08:05:06;;;;;;;14.80;6.90;;;12.20;69.10;;;;;;5094901;28;20032;-69
2022/04/26 08:07:33;;;;;;;13.43;7.60;;;12.30;69.60;;;;;;5094801;28;20020;-68
2022/04/26 08:09:59;;;;;;;13.82;7.57;;;12.40;71.20;;;;;;5094851;28;20017;-68
2022/04/26 08:12:25;;;;;;;11.32;6.82;;;12.50;69.90;;;;;;5094668;28;20032;-67
2022/04/26 08:14:51;;;;;;;11.80;6.93;;;12.60;69.40;;;;;;5093498;28;20028;-67
2022/04/26 08:17:17;;;;;;;14.80;7.00;;;12.60;68.70;;;;;;5094682;28;20086;-67
2022/04/26 08:19:43;;;;;;;14.07;7.13;;;12.70;68.40;;;;;;5094672;28;20036;-68
2022/04/26 08:22:08;;;;;;;15.98;7.00;;;12.70;68.40;;;;;;5094664;28;20084;-67
2022/04/26 08:27:33;;;;;;;11.10;6.88;;;12.80;69.00;;;;;;5115132;28;20157;-68
2022/04/26 08:29:59;;;;;;;12.60;6.88;;;12.80;67.70;;;;;;5115057;28;20016;-68
2022/04/26 08:32:29;;;;;;;14.32;7.30;;;12.70;67.90;;;;;;5114895;28;20032;-68
2022/04/26 08:34:56;;;;;;;12.57;7.45;;;12.80;69.20;;;;;;5114852;28;20032;-68
2022/04/26 08:37:23;;;;;;;17.17;8.45;;;12.90;68.20;;;;;;5114867;28;20029;-68
2022/04/26 08:39:52;;;;;;;14.90;6.90;;;12.90;67.90;;;;;;5114795;28;20020;-68
2022/04/26 08:42:39;;;;;;;13.60;7.95;;;12.90;67.90;;;;;;5114662;28;20024;-68
2022/04/26 08:45:06;;;;;;;12.40;7.07;;;12.90;67.90;;;;;;5114655;28;20038;-68
2022/04/26 08:53:02;;;;;;;12.27;7.95;;;13.00;67.20;;;;;;5114683;28;20062;-68
2022/04/26 08:55:31;;;;;;;15.98;7.43;;;13.00;67.30;;;;;;5114487;28;20024;-68
2022/04/26 08:57:57;;;;;;;14.10;7.53;;;13.10;67.40;;;;;;5114449;28;20028;-68
2022/04/26 09:00:23;;;;;;;13.80;7.47;;;13.10;67.20;;;;;;5114409;28;20024;-68
2022/04/26 09:03:03;;;;;;;11.75;7.20;;;13.10;66.80;;;;;;5114282;28;20052;-68
2022/04/26 09:05:30;;;;;;;23.60;7.88;;;13.20;66.30;;;;;;5114239;28;20083;-68
2022/04/26 09:07:55;;;;;;;10.25;6.93;;;13.10;66.90;;;;;;5114212;28;20035;-69
2022/04/26 09:10:21;;;;;;;12.90;7.80;;;13.10;66.00;;;;;;5113735;28;20016;-67
2022/04/26 09:13:09;;;;;;;11.63;7.10;;;13.10;66.10;;;;;;5114248;28;20056;-67
2022/04/26 09:15:51;;;;;;;10.48;6.90;;;13.20;65.80;;;;;;5114222;28;20024;-67
2022/04/26 09:18:29;;;;;;;10.38;6.55;;;13.30;65.70;;;;;;5114020;28;20039;-67
2022/04/26 09:20:56;;;;;;;11.18;6.07;;;13.40;65.40;;;;;;5114050;28;20020;-67
2022/04/26 09:23:29;;;;;;;11.95;6.32;;;13.40;65.10;;;;;;5113929;28;20024;-67
2022/04/26 09:26:06;;;;;;;10.55;5.85;;;13.50;64.10;;;;;;5113751;28;20055;-67
2022/04/26 09:28:32;;;;;;;10.73;5.82;;;13.60;63.30;;;;;;5113867;28;20012;-67
2022/04/26 09:30:57;;;;;;;8.30;4.82;;;13.70;62.40;;;;;;5113842;28;20017;-66
2022/04/26 09:33:32;;;;;;;9.40;5.25;;;13.80;62.40;;;;;;5113675;28;20486;-67
2022/04/26 09:36:03;;;;;;;14.10;5.47;;;13.80;62.00;;;;;;5113752;28;20024;-67
2022/04/26 09:38:32;;;;;;;8.95;5.72;;;13.90;61.10;;;;;;5113834;28;20031;-67
2022/04/26 09:41:04;;;;;;;9.90;5.82;;;14.00;62.10;;;;;;5113717;28;20020;-67
2022/04/26 09:43:30;;;;;;;11.93;5.00;;;14.10;61.70;;;;;;5113548;28;20024;-67
2022/04/26 09:45:57;;;;;;;12.38;5.72;;;14.20;60.50;;;;;;5113676;28;20470;-67
2022/04/26 09:48:32;;;;;;;8.35;5.07;;;14.30;59.50;;;;;;5113678;28;20012;-67
2022/04/26 09:50:58;;;;;;;8.60;5.00;;;14.50;58.70;;;;;;5113570;28;20027;-68
2022/04/26 09:53:29;;;;;;;7.97;4.78;;;14.60;59.00;;;;;;5113520;28;20036;-68
2022/04/26 09:55:56;;;;;;;10.55;5.00;;;14.80;58.10;;;;;;5113528;28;20028;-68
2022/04/26 09:58:23;;;;;;;8.82;4.55;;;14.90;58.60;;;;;;5113435;28;20035;-68
2022/04/26 10:00:50;;;;;;;7.90;4.70;;;15.00;57.30;;;;;;5113440;28;20035;-67
2022/04/26 10:03:39;;;;;;;7.78;4.50;;;15.00;56.10;;;;;;5113294;28;20024;-68
2022/04/26 10:06:07;;;;;;;7.18;4.72;;;15.00;56.00;;;;;;5112761;28;20035;-67
2022/04/26 10:08:35;;;;;;;6.63;4.35;;;15.00;55.60;;;;;;5113336;28;20027;-68
2022/04/26 10:11:02;;;;;;;6.55;3.97;;;15.10;57.10;;;;;;5113359;28;20468;-68
2022/04/26 10:13:35;;;;;;;7.47;3.80;;;15.20;56.20;;;;;;5113212;28;20020;-68
2022/04/26 10:16:05;;;;;;;;;;;15.30;54.30;;;;;;5113747;28;20024;-67
2022/04/26 10:18:35;;;;;;;9.60;4.45;;;15.40;52.70;;;;;;5113293;28;19908;-68
2022/04/26 10:21:03;;;;;;;5.05;3.60;;;15.40;52.60;;;;;;5113430;28;20027;-67
2022/04/26 10:23:51;;;;;;;7.32;3.97;;;15.40;52.10;;;;;;5098580;28;20107;-68
2022/04/26 10:26:22;;;;;;;5.88;4.00;;;15.40;51.60;;;;;;5116945;28;20051;-68
2022/04/26 10:28:53;;;;;;;6.07;4.47;;;15.40;51.40;;;;;;5117261;28;20023;-68
2022/04/26 10:31:34;;;;;;;9.52;4.60;;;15.40;51.80;;;;;;5117347;28;20017;-67
2022/04/26 10:34:00;;;;;;;8.05;4.07;;;15.50;52.90;;;;;;5117216;28;20016;-66
2022/04/26 10:36:29;;;;;;;8.25;4.95;;;15.60;52.40;;;;;;5117178;28;20020;-66
2022/04/26 10:39:07;;;;;;;6.70;4.35;;;15.70;53.30;;;;;;5116927;28;20041;-67
2022/04/26 10:41:41;;;;;;;7.38;4.70;;;15.80;53.50;;;;;;5116909;28;20023;-66
2022/04/26 10:44:12;;;;;;;7.45;4.75;;;16.00;53.20;;;;;;5116753;28;20023;-65
2022/04/26 10:46:59;;;;;;;8.88;4.95;;;16.10;51.70;;;;;;5098901;28;20030;-70
2022/04/26 10:49:35;;;;;;;8.82;4.93;;;16.00;51.30;;;;;;5115216;28;20028;-66
2022/04/26 10:52:13;;;;;;;13.82;8.18;;;16.00;52.20;;;;;;5117004;28;20031;-69
2022/04/26 10:55:03;;;;;;;10.40;4.63;;;16.20;50.90;;;;;;5116703;28;20024;-66
2022/04/26 10:57:39;;;;;;;8.60;4.72;;;16.20;50.90;;;;;;5116611;28;20024;-66
2022/04/26 11:00:12;;;;;;;7.10;4.43;;;16.30;51.80;;;;;;5116657;28;20048;-65
2022/04/26 11:02:40;;;;;;;6.75;4.35;;;16.50;51.90;;;;;;5116621;28;20024;-67
2022/04/26 11:05:10;;;;;;;7.25;4.38;;;16.60;51.30;;;;;;5116540;28;20032;-66
2022/04/26 11:07:56;;;;;;;7.45;4.35;;;16.60;50.50;;;;;;5116528;28;20020;-67
2022/04/26 11:10:25;;;;;;;10.88;4.57;;;16.70;48.30;;;;;;5116125;28;20059;-67
2022/04/26 11:12:51;;;;;;;6.38;4.20;;;16.80;49.90;;;;;;5116636;28;20039;-67
2022/04/26 11:15:20;;;;;;;9.27;4.20;;;16.80;47.80;;;;;;5116466;28;20050;-67
2022/04/26 11:17:46;;;;;;;6.28;4.60;;;16.70;48.10;;;;;;5116368;28;20032;-67
2022/04/26 11:20:14;;;;;;;7.70;3.83;;;16.70;49.00;;;;;;5116291;28;20028;-67
2022/04/26 11:27:59;;;;;;;8.35;4.18;;;16.70;49.00;;;;;;5116201;28;20020;-67
2022/04/26 11:28:31;;;;;;;8.02;4.20;;;16.70;49.20;;;;;;5115125;28;20038;-68
2022/04/26 11:30:57;;;;;;;7.25;4.25;;;16.70;49.70;;;;;;5114946;28;20024;-67
2022/04/26 11:33:24;;;;;;;6.15;4.82;;;16.80;50.30;;;;;;5114534;28;20027;-67
2022/04/26 11:35:56;;;;;;;8.75;4.65;;;16.80;51.00;;;;;;5114945;28;20105;-67
2022/04/26 11:38:22;;;;;;;8.27;4.43;;;16.80;50.90;;;;;;5114998;28;20029;-67
2022/04/26 11:40:50;;;;;;;7.45;4.70;;;16.70;50.80;;;;;;5114835;28;20036;-67
2022/04/26 11:43:19;;;;;;;6.43;4.28;;;16.70;50.00;;;;;;5114707;28;20080;-67
2022/04/26 11:45:48;;;;;;;7.55;4.85;;;16.60;50.10;;;;;;5114766;28;20024;-67
2022/04/26 11:48:16;;;;;;;6.47;4.43;;;16.60;50.50;;;;;;5114762;28;20081;-67
2022/04/26 11:50:43;;;;;;;12.82;4.65;;;16.60;50.10;;;;;;5114640;28;20017;-67
2022/04/26 11:53:15;;;;;;;7.28;4.70;;;16.60;50.90;;;;;;5096792;28;20054;-67
2022/04/26 11:56:02;;;;;;;8.57;4.55;;;16.60;50.80;;;;;;5114557;28;20054;-67
2022/04/26 11:58:27;;;;;;;5.88;4.32;;;16.70;50.20;;;;;;5096488;28;20111;-67
2022/04/26 12:01:04;;;;;;;9.45;4.90;;;16.70;50.20;;;;;;5114500;28;20027;-67
2022/04/26 12:03:40;;;;;;;9.25;4.78;;;16.70;50.60;;;;;;5114469;28;20417;-67
2022/04/26 12:06:08;;;;;;;6.72;4.03;;;16.70;50.80;;;;;;5114426;28;20023;-67
2022/04/26 12:08:40;;;;;;;8.00;4.60;;;16.90;50.50;;;;;;5114366;28;20024;-67
2022/04/26 12:11:13;;;;;;;6.95;4.38;;;17.00;49.20;;;;;;5114395;28;20020;-67
2022/04/26 12:13:38;;;;;;;6.22;4.30;;;17.00;48.30;;;;;;5114240;28;20442;-66
2022/04/26 12:16:22;;;;;;;7.65;4.00;;;17.10;48.10;;;;;;5114215;28;20024;-67
2022/04/26 12:18:55;;;;;;;8.35;4.50;;;17.20;48.40;;;;;;5114236;28;20028;-67
2022/04/26 12:21:21;;;;;;;;;;;17.20;47.60;;;;;;5114728;28;20024;-67
2022/04/26 12:23:47;;;;;;;8.38;4.38;;;17.30;48.10;;;;;;5114161;28;19926;-67
2022/04/26 12:26:14;;;;;;;6.63;4.50;;;17.30;47.60;;;;;;5094828;28;537520;-67
2022/04/26 12:28:47;;;;;;;6.95;4.40;;;17.10;46.50;;;;;;5097340;28;20027;-67
2022/04/26 12:31:25;;;;;;;7.32;4.60;;;17.20;49.20;;;;;;5114956;28;20438;-66
2022/04/26 12:34:14;;;;;;;8.90;4.22;;;17.40;48.00;;;;;;5114965;28;20048;-66
2022/04/26 12:37:00;;;;;;;8.40;4.40;;;17.50;47.40;;;;;;5114873;28;20027;-66
2022/04/26 12:39:48;;;;;;;6.30;4.30;;;17.50;46.40;;;;;;5114866;28;20023;-67
2022/04/26 12:42:16;;;;;;;11.57;4.50;;;17.50;46.60;;;;;;5114598;28;20087;-67
2022/04/26 12:45:00;;;;;;;5.43;3.83;;;17.40;45.80;;;;;;5113953;28;20012;-67
2022/04/26 12:53:07;;;;;;;6.03;4.78;;;17.80;43.90;;;;;;5114820;28;20028;-67
2022/04/26 12:55:38;;;;;;;9.05;4.45;;;17.80;44.90;;;;;;5114646;28;20028;-67
2022/04/26 12:58:08;;;;;;;7.82;4.32;;;18.10;45.10;;;;;;5114463;28;20031;-67
2022/04/26 13:00:37;;;;;;;5.82;4.68;;;18.20;44.80;;;;;;5096478;28;20024;-67
2022/04/26 13:03:05;;;;;;;6.32;4.15;;;18.30;45.40;;;;;;5114321;28;20056;-67
2022/04/26 13:05:41;;;;;;;6.13;4.40;;;18.40;44.00;;;;;;5114122;28;20016;-68
2022/04/26 13:08:08;;;;;;;7.35;4.55;;;18.50;43.80;;;;;;5114097;28;20027;-67
2022/04/26 13:10:33;;;;;;;5.97;4.35;;;18.50;43.80;;;;;;5114169;28;20012;-66
2022/04/26 13:12:59;;;;;;;7.07;4.40;;;18.50;43.40;;;;;;5114073;28;20050;-67
2022/04/26 13:15:24;;;;;;;8.30;4.90;;;18.40;43.10;;;;;;5113934;28;20044;-65
2022/04/26 13:17:50;;;;;;;6.55;3.78;;;18.50;44.00;;;;;;5114101;28;20055;-67
2022/04/26 13:20:16;;;;;;;7.68;5.00;;;18.50;44.20;;;;;;5114051;28;20161;-67
2022/04/26 13:22:42;;;;;;;10.27;4.75;;;18.50;42.80;;;;;;5113917;28;20064;-67
2022/04/26 13:25:08;;;;;;;7.32;4.72;;;18.50;42.80;;;;;;5113769;28;20056;-67
2022/04/26 13:27:37;;;;;;;7.95;4.93;;;18.50;43.10;;;;;;5113844;28;20036;-67
2022/04/26 13:30:04;;;;;;;8.25;4.95;;;18.50;42.90;;;;;;5095910;28;20088;-66
2022/04/26 13:32:30;;;;;;;8.45;5.13;;;18.60;43.60;;;;;;5113788;28;20028;-66
2022/04/26 13:34:57;;;;;;;7.13;4.53;;;18.70;43.10;;;;;;5113805;28;20048;-66
2022/04/26 13:37:24;;;;;;;6.03;4.28;;;18.70;42.80;;;;;;5113776;28;20021;-67
2022/04/26 13:39:50;;;;;;;6.78;4.20;;;18.70;41.90;;;;;;5096220;28;20020;-66
2022/04/26 13:42:19;;;;;;;6.68;4.18;;;18.60;42.40;;;;;;5113653;28;20024;-67
2022/04/26 13:44:45;;;;;;;6.72;4.40;;;18.50;41.90;;;;;;5113664;28;20048;-67
2022/04/26 13:47:11;;;;;;;8.60;4.25;;;18.30;42.40;;;;;;5113627;28;20020;-67
2022/04/26 13:49:39;;;;;;;5.80;4.30;;;18.20;42.90;;;;;;5113624;28;20016;-67
2022/04/26 13:52:06;;;;;;;7.53;4.10;;;18.20;42.80;;;;;;5113595;28;20024;-67
2022/04/26 13:54:32;;;;;;;7.32;4.07;;;18.20;42.40;;;;;;5113543;28;20167;-66
2022/04/26 13:56:58;;;;;;;10.52;4.10;;;18.10;42.30;;;;;;5113405;28;20032;-68
2022/04/26 13:59:25;;;;;;;6.05;4.22;;;18.10;42.90;;;;;;5113536;28;20073;-68
2022/04/26 14:01:52;;;;;;;6.90;4.80;;;18.10;43.30;;;;;;5095309;28;20031;-67
2022/04/26 14:04:18;;;;;;;7.50;4.00;;;18.10;43.60;;;;;;5113454;28;20024;-68
2022/04/26 14:06:44;;;;;;;11.77;4.13;;;18.10;43.40;;;;;;5113397;28;20058;-68
2022/04/26 14:09:09;;;;;;;7.93;3.90;;;18.10;43.40;;;;;;5113316;28;20024;-68
2022/04/26 14:11:35;;;;;;;7.20;4.25;;;18.00;42.50;;;;;;5113259;28;20024;-69
2022/04/26 14:22:13;;;;;;;6.70;4.25;;;17.90;42.80;;;;;;5113316;28;20039;-67
2022/04/26 14:24:39;;;;;;;6.53;4.15;;;18.00;42.30;;;;;;5113036;28;20073;-68
2022/04/26 14:27:05;;;;;;;6.97;3.83;;;18.00;41.90;;;;;;5113219;28;20028;-68
2022/04/26 14:29:32;;;;;;;5.93;3.95;;;18.10;43.00;;;;;;5113128;28;20028;-67
2022/04/26 14:31:57;;;;;;;7.80;3.95;;;18.20;42.00;;;;;;5113138;28;20084;-67
2022/04/26 14:34:23;;;;;;;5.93;4.05;;;18.20;41.90;;;;;;5112971;28;20028;-67
2022/04/26 14:36:49;;;;;;;5.85;3.88;;;18.20;42.20;;;;;;5095261;28;20032;-67
2022/04/26 14:39:15;;;;;;;7.00;3.88;;;18.30;41.60;;;;;;5113002;28;20031;-67
2022/04/26 14:41:42;;;;;;;8.13;4.57;;;18.30;41.50;;;;;;5112971;28;20024;-67
2022/04/26 14:44:08;;;;;;;6.72;4.10;;;18.20;41.40;;;;;;5095368;28;20044;-67
2022/04/26 14:46:34;;;;;;;5.50;3.53;;;18.30;42.10;;;;;;5112980;28;20032;-67
2022/04/26 14:49:01;;;;;;;6.25;3.80;;;18.20;41.80;;;;;;5113055;28;20103;-67
2022/04/26 14:51:26;;;;;;;8.25;4.13;;;18.20;40.60;;;;;;5112961;28;20020;-67
2022/04/26 14:53:52;;;;;;;7.97;4.60;;;18.20;41.20;;;;;;5112937;28;20107;-67
2022/04/26 14:56:18;;;;;;;7.80;4.18;;;18.20;41.50;;;;;;5113021;28;20024;-67
2022/04/26 14:58:44;;;;;;;8.95;3.83;;;18.20;41.70;;;;;;5112874;28;20017;-67
2022/04/26 15:01:10;;;;;;;5.55;3.60;;;18.30;42.30;;;;;;5112832;28;20027;-67
2022/04/26 15:03:36;;;;;;;5.95;3.90;;;18.30;41.40;;;;;;5112802;28;20028;-67
2022/04/26 15:06:02;;;;;;;5.32;3.97;;;18.40;41.40;;;;;;5112838;28;20020;-67
2022/04/26 15:11:12;;;;;;;5.72;3.78;;;18.30;40.40;;;;;;5116761;28;20031;-67
2022/04/26 15:16:42;;;;;;;9.02;4.15;;;18.10;40.80;;;;;;5116624;28;20058;-67
2022/04/26 15:19:13;;;;;;;6.72;3.85;;;18.00;40.70;;;;;;5116439;28;20020;-67
2022/04/26 15:21:42;;;;;;;10.98;4.43;;;18.00;41.10;;;;;;5116432;28;20020;-67
2022/04/26 15:24:07;;;;;;;6.07;4.22;;;18.00;41.30;;;;;;5116286;28;20031;-67
2022/04/26 15:26:34;;;;;;;7.30;4.18;;;17.90;41.20;;;;;;5116147;28;20048;-67
2022/04/26 15:29:00;;;;;;;9.18;4.10;;;17.90;41.80;;;;;;5116155;28;20076;-67
2022/04/26 15:31:26;;;;;;;6.43;4.22;;;17.80;41.50;;;;;;5116155;28;20020;-67
2022/04/26 15:33:52;;;;;;;6.60;4.00;;;17.80;41.30;;;;;;5116116;28;20031;-67
2022/04/26 15:36:19;;;;;;;8.55;4.50;;;17.70;41.20;;;;;;5116147;28;20028;-67
2022/04/26 15:38:45;;;;;;;6.60;3.97;;;17.70;42.00;;;;;;5116026;28;20040;-67
2022/04/26 15:41:12;;;;;;;5.75;3.75;;;17.70;42.50;;;;;;5115984;28;20028;-67
2022/04/26 15:43:39;;;;;;;5.80;3.65;;;17.50;41.00;;;;;;5115868;28;20032;-67
2022/04/26 15:46:08;;;;;;;6.50;4.03;;;17.60;41.80;;;;;;5115876;28;20055;-67
2022/04/26 15:48:47;;;;;;;6.13;4.15;;;17.60;41.30;;;;;;5115808;28;20020;-67
2022/04/26 15:51:16;;;;;;;5.32;3.78;;;17.60;42.20;;;;;;5115876;28;20083;-67
2022/04/26 15:53:42;;;;;;;12.38;4.00;;;17.60;41.70;;;;;;5115690;28;20388;-67
2022/04/26 15:56:08;;;;;;;8.45;4.07;;;17.60;42.10;;;;;;5115825;28;20021;-67
2022/04/26 15:58:34;;;;;;;4.95;3.53;;;17.50;41.40;;;;;;5115705;28;20054;-67
2022/04/26 16:00:59;;;;;;;6.10;4.05;;;17.50;41.90;;;;;;5115626;28;20107;-67
2022/04/26 16:03:25;;;;;;;8.60;3.80;;;17.50;42.30;;;;;;5115445;28;20074;-67
2022/04/26 16:05:52;;;;;;;5.93;4.18;;;17.50;42.30;;;;;;5115558;28;20115;-67
2022/04/26 16:08:17;;;;;;;5.68;3.72;;;17.40;42.50;;;;;;5115464;28;20028;-67
2022/04/26 16:21:40;;;;;;;5.82;3.95;;;17.40;43.20;;;;;;5099829;28;20043;-66
2022/04/26 16:24:06;;;;;;;6.15;3.92;;;17.40;43.30;;;;;;5115164;28;20032;-66
2022/04/26 16:26:34;;;;;;;5.65;3.58;;;17.40;43.20;;;;;;5114966;28;20058;-67
2022/04/26 16:29:01;;;;;;;5.18;4.03;;;17.30;42.80;;;;;;5115034;28;20017;-67
2022/04/26 16:31:30;;;;;;;5.78;3.88;;;17.30;43.00;;;;;;5115166;28;20012;-66
2022/04/26 16:34:01;;;;;;;4.75;3.92;;;17.20;42.90;;;;;;5114983;28;20024;-66
2022/04/26 16:36:28;;;;;;;5.70;3.80;;;17.20;43.30;;;;;;5114907;28;20032;-66
2022/04/26 16:38:55;;;;;;;6.38;3.80;;;17.10;43.40;;;;;;5096822;28;20008;-66
2022/04/26 16:41:21;;;;;;;7.45;4.10;;;17.00;44.10;;;;;;5097059;28;20035;-66
2022/04/26 16:43:48;;;;;;;6.93;3.83;;;17.00;43.00;;;;;;5114678;28;20035;-66
2022/04/26 16:46:19;;;;;;;4.90;3.63;;;17.00;43.00;;;;;;5096782;28;20112;-66
2022/04/26 16:48:48;;;;;;;10.05;4.13;;;16.90;43.30;;;;;;5114812;28;20020;-67
2022/04/26 16:51:15;;;;;;;6.18;3.70;;;16.90;43.40;;;;;;5114621;28;20028;-66
2022/04/26 16:53:42;;;;;;;5.90;4.13;;;17.00;43.60;;;;;;5114576;28;20032;-66
2022/04/26 16:56:08;;;;;;;4.97;3.80;;;16.90;43.50;;;;;;5114513;28;20028;-66
2022/04/26 16:58:34;;;;;;;6.47;3.88;;;16.90;43.30;;;;;;5114479;28;20036;-66
2022/04/26 17:00:59;;;;;;;6.13;3.88;;;16.80;43.10;;;;;;5114428;28;20035;-66
2022/04/26 17:03:25;;;;;;;6.38;3.83;;;16.90;43.50;;;;;;5114316;28;20039;-66
2022/04/26 17:05:51;;;;;;;6.22;3.85;;;16.80;43.00;;;;;;5114320;28;20036;-66
2022/04/26 17:08:18;;;;;;;7.22;3.70;;;16.80;43.20;;;;;;5114189;28;20030;-66
2022/04/26 17:10:46;;;;;;;5.50;3.60;;;16.70;43.80;;;;;;5114155;28;20030;-66